createdAt,value
2022-12-11T00:01:33.641Z,101192.41
2022-12-11T00:04:00.248Z,101165.00
2022-12-11T00:06:26.733Z,101179.13
2022-12-11T00:08:54.585Z,101167.88
2022-12-11T00:11:22.686Z,101194.22
2022-12-11T00:13:49.164Z,101153.19
2022-12-11T00:16:15.970Z,101195.97
2022-12-11T00:18:42.581Z,101182.25
2022-12-11T00:21:13.894Z,101166.78
2022-12-11T00:23:40.965Z,101164.16
2022-12-11T00:26:11.875Z,101180.75
2022-12-11T00:28:39.030Z,101162.66
2022-12-11T00:31:07.897Z,101182.72
2022-12-11T00:33:35.010Z,101170.44
2022-12-11T00:36:02.252Z,101159.88
2022-12-11T00:38:29.286Z,101164.41
2022-12-11T00:40:59.945Z,101180.19
2022-12-11T00:43:26.929Z,101175.19
2022-12-11T00:45:53.520Z,101164.63
2022-12-11T00:48:20.232Z,101182.19
2022-12-11T00:50:47.248Z,101177.03
2022-12-11T00:53:14.341Z,101151.66
2022-12-11T00:55:42.301Z,101166.44
2022-12-11T00:58:09.492Z,101168.13
2022-12-11T01:00:36.553Z,101156.88
2022-12-11T01:03:04.172Z,101174.25
2022-12-11T01:05:31.602Z,101172.47
2022-12-11T01:07:58.580Z,101181.38
2022-12-11T01:10:25.675Z,101167.41
2022-12-11T01:13:06.124Z,101181.38
2022-12-11T01:15:41.514Z,101175.50
2022-12-11T01:18:09.454Z,101169.50
2022-12-11T01:20:38.252Z,101178.22
2022-12-11T01:23:05.216Z,101179.06
2022-12-11T01:25:33.339Z,101179.16
2022-12-11T01:28:00.314Z,101174.16
2022-12-11T01:30:27.356Z,101169.97
2022-12-11T01:32:54.346Z,101136.91
2022-12-11T01:35:21.124Z,101156.31
2022-12-11T01:37:48.053Z,101164.94
2022-12-11T01:40:17.352Z,101155.28
2022-12-11T01:42:44.053Z,101170.97
2022-12-11T01:45:26.724Z,101171.88
2022-12-11T01:48:10.401Z,101151.25
2022-12-11T01:50:41.851Z,101146.00
2022-12-11T01:53:12.827Z,101141.72
2022-12-11T01:55:40.534Z,101144.41
2022-12-11T01:58:08.828Z,101140.13
2022-12-11T02:00:35.917Z,101160.91
2022-12-11T02:03:02.469Z,101152.19
2022-12-11T02:05:28.998Z,101161.88
2022-12-11T02:08:00.468Z,101168.66
2022-12-11T02:10:47.798Z,101156.06
2022-12-11T02:13:26.545Z,101149.03
2022-12-11T02:16:21.631Z,101162.34
2022-12-11T02:19:08.597Z,101153.75
2022-12-11T02:21:41.146Z,101157.25
2022-12-11T02:24:36.825Z,101149.31
2022-12-11T02:27:22.124Z,101144.56
2022-12-11T02:30:08.782Z,101151.38
2022-12-11T02:32:43.404Z,101144.56
2022-12-11T02:35:33.569Z,101140.97
2022-12-11T02:38:06.022Z,101122.84
2022-12-11T02:40:37.516Z,101140.28
2022-12-11T02:43:08.546Z,101137.81
2022-12-11T02:45:37.207Z,101129.97
2022-12-11T02:48:06.571Z,101138.66
2022-12-11T02:50:37.222Z,101117.91
2022-12-11T02:53:06.386Z,101135.44
2022-12-11T02:55:37.371Z,101136.31
2022-12-11T02:58:18.344Z,101098.91
2022-12-11T03:00:46.397Z,101133.84
2022-12-11T03:03:13.618Z,101110.38
2022-12-11T03:05:42.449Z,101106.88
2022-12-11T03:08:09.818Z,101128.69
2022-12-11T03:10:36.839Z,101133.91
2022-12-11T03:13:05.394Z,101109.81
2022-12-11T03:15:59.137Z,101109.81
2022-12-11T03:18:36.403Z,101133.75
2022-12-11T03:21:13.093Z,101119.97
2022-12-11T03:23:51.567Z,101130.41
2022-12-11T03:26:20.144Z,101134.63
2022-12-11T03:29:00.940Z,101132.94
2022-12-11T03:31:34.592Z,101101.81
2022-12-11T03:34:08.598Z,101127.09
2022-12-11T03:36:38.735Z,101116.00
2022-12-11T03:39:13.281Z,101114.94
2022-12-11T03:41:41.118Z,101123.03
2022-12-11T03:44:09.189Z,101121.16
2022-12-11T03:46:39.552Z,101098.50
2022-12-11T03:49:11.529Z,101132.41
2022-12-11T03:51:39.278Z,101100.13
2022-12-11T03:54:07.078Z,101111.47
2022-12-11T03:56:38.421Z,101117.66
2022-12-11T03:59:05.527Z,101129.88
2022-12-11T04:01:32.553Z,101123.75
2022-12-11T04:03:59.142Z,101126.47
2022-12-11T04:06:26.204Z,101114.31
2022-12-11T04:08:53.200Z,101121.28
2022-12-11T04:11:34.735Z,101120.44
2022-12-11T04:14:25.026Z,101102.25
2022-12-11T04:16:52.162Z,101109.16
2022-12-11T04:19:37.890Z,101121.22
2022-12-11T04:22:33.565Z,101110.75
2022-12-11T04:25:05.712Z,101108.88
2022-12-11T04:27:51.146Z,101100.31
2022-12-11T04:30:19.293Z,101116.22
2022-12-11T04:32:46.350Z,101104.88
2022-12-11T04:35:13.990Z,101117.88
2022-12-11T04:37:41.315Z,101099.50
2022-12-11T04:40:12.564Z,101111.91
2022-12-11T04:42:39.622Z,101113.69
2022-12-11T04:45:08.421Z,101103.28
2022-12-11T04:47:39.983Z,101114.53
2022-12-11T04:50:09.143Z,101092.81
2022-12-11T04:52:35.725Z,101098.94
2022-12-11T04:55:08.503Z,101097.50
2022-12-11T04:57:35.358Z,101091.38
2022-12-11T05:00:02.365Z,101075.88
2022-12-11T05:02:29.037Z,101095.03
2022-12-11T05:04:55.544Z,101076.72
2022-12-11T05:07:22.520Z,101089.97
2022-12-11T05:09:49.682Z,101075.19
2022-12-11T05:12:16.225Z,101042.09
2022-12-11T05:14:42.724Z,101088.06
2022-12-11T05:17:09.712Z,101073.31
2022-12-11T05:19:36.838Z,101089.78
2022-12-11T05:22:04.008Z,101092.41
2022-12-11T05:24:30.532Z,101068.03
2022-12-11T05:26:57.568Z,101085.34
2022-12-11T05:29:24.639Z,101084.56
2022-12-11T05:31:51.433Z,101089.66
2022-12-11T05:34:17.934Z,101089.56
2022-12-11T05:36:44.961Z,101101.63
2022-12-11T05:39:12.437Z,101072.16
2022-12-11T05:41:39.125Z,101066.03
2022-12-11T05:44:06.266Z,101076.56
2022-12-11T05:46:32.861Z,101066.34
2022-12-11T05:49:01.620Z,101083.06
2022-12-11T05:51:29.908Z,101079.72
2022-12-11T05:53:58.013Z,101063.94
2022-12-11T05:56:27.488Z,101073.81
2022-12-11T05:58:55.637Z,101061.63
2022-12-11T06:01:23.829Z,101075.59
2022-12-11T06:03:50.425Z,101079.00
2022-12-11T06:06:17.031Z,101075.38
2022-12-11T06:08:44.196Z,101066.72
2022-12-11T06:11:13.994Z,101081.44
2022-12-11T06:13:40.985Z,101060.78
2022-12-11T06:16:08.496Z,101065.72
2022-12-11T06:18:41.182Z,101055.56
2022-12-11T06:21:16.225Z,101075.38
2022-12-11T06:23:43.380Z,101072.66
2022-12-11T06:26:11.298Z,101066.34
2022-12-11T06:28:38.609Z,101055.97
2022-12-11T06:31:06.216Z,101048.13
2022-12-11T06:33:32.797Z,101062.22
2022-12-11T06:36:12.227Z,101072.50
2022-12-11T06:38:39.553Z,101071.66
2022-12-11T06:41:08.110Z,101073.31
2022-12-11T06:43:36.680Z,101068.06
2022-12-11T06:46:24.732Z,101078.53
2022-12-11T06:48:51.376Z,101078.47
2022-12-11T06:51:20.982Z,101060.19
2022-12-11T06:53:52.591Z,101064.44
2022-12-11T06:56:20.255Z,101076.56
2022-12-11T06:58:47.298Z,101065.25
2022-12-11T07:01:22.572Z,101077.28
2022-12-11T07:03:49.874Z,101070.34
2022-12-11T07:06:18.160Z,101092.91
2022-12-11T07:08:45.262Z,101085.72
2022-12-11T07:11:14.955Z,101074.59
2022-12-11T07:13:44.766Z,101080.50
2022-12-11T07:16:13.425Z,101090.16
2022-12-11T07:18:42.143Z,101099.50
2022-12-11T07:21:10.444Z,101079.44
2022-12-11T07:23:37.051Z,101107.03
2022-12-11T07:26:11.867Z,101102.75
2022-12-11T07:28:39.224Z,101112.09
2022-12-11T07:31:12.083Z,101112.81
2022-12-11T07:33:39.544Z,101105.88
2022-12-11T07:36:09.149Z,101095.72
2022-12-11T07:38:36.284Z,101098.94
2022-12-11T07:41:05.399Z,101113.00
2022-12-11T07:43:32.950Z,101116.31
2022-12-11T07:46:09.224Z,101111.22
2022-12-11T07:48:37.273Z,101104.44
2022-12-11T07:51:13.124Z,101112.09
2022-12-11T07:53:39.625Z,101083.34
2022-12-11T07:56:06.808Z,101109.34
2022-12-11T07:58:33.991Z,101110.38
2022-12-11T08:01:00.826Z,101106.78
2022-12-11T08:03:27.375Z,101082.63
2022-12-11T08:05:53.960Z,101085.31
2022-12-11T08:08:20.578Z,101030.63
2022-12-11T08:10:47.376Z,101079.44
2022-12-11T08:13:14.480Z,101089.75
2022-12-11T08:15:41.017Z,101104.66
2022-12-11T08:18:07.567Z,101098.72
2022-12-11T08:20:34.121Z,101109.81
2022-12-11T08:23:00.632Z,101073.28
2022-12-11T08:25:27.173Z,101095.06
2022-12-11T08:27:53.689Z,101108.19
2022-12-11T08:30:20.717Z,101113.38
2022-12-11T08:32:47.216Z,101119.16
2022-12-11T08:35:13.774Z,101109.50
2022-12-11T08:37:40.361Z,101111.88
2022-12-11T08:40:07.843Z,101123.06
2022-12-11T08:42:34.377Z,101123.94
2022-12-11T08:45:00.871Z,101107.28
2022-12-11T08:47:27.719Z,101119.72
2022-12-11T08:49:54.710Z,101110.16
2022-12-11T08:52:21.257Z,101118.22
2022-12-11T08:54:48.367Z,101119.09
2022-12-11T08:57:15.046Z,101114.72
2022-12-11T08:59:41.600Z,101111.09
2022-12-11T09:02:12.665Z,101103.47
2022-12-11T09:04:39.254Z,101109.81
2022-12-11T09:07:05.862Z,101109.81
2022-12-11T09:09:32.397Z,101110.03
2022-12-11T09:12:01.426Z,101109.97
2022-12-11T09:14:28.046Z,101104.88
2022-12-11T09:16:54.614Z,101110.28
2022-12-11T09:19:21.196Z,101108.50
2022-12-11T09:21:47.804Z,101097.91
2022-12-11T09:24:15.602Z,101076.41
2022-12-11T09:26:42.214Z,101106.16
2022-12-11T09:29:08.847Z,101092.41
2022-12-11T09:31:36.911Z,101106.38
2022-12-11T09:34:09.045Z,101108.91
2022-12-11T09:36:37.997Z,101074.97
2022-12-11T09:39:06.241Z,101100.25
2022-12-11T09:41:38.407Z,101108.19
2022-12-11T09:44:26.686Z,101110.09
2022-12-11T09:46:53.551Z,101094.63
2022-12-11T09:49:25.844Z,101112.63
2022-12-11T09:52:10.942Z,101104.69
2022-12-11T09:54:45.396Z,101117.84
2022-12-11T09:57:30.393Z,101088.41
2022-12-11T10:00:11.426Z,101106.72
2022-12-11T10:03:19.779Z,101111.09
2022-12-11T10:06:05.671Z,101112.03
2022-12-11T10:08:40.199Z,101112.91
2022-12-11T10:11:43.652Z,101112.63
2022-12-11T10:14:29.834Z,101117.69
2022-12-11T10:17:21.451Z,101110.22
2022-12-11T10:19:48.938Z,101110.00
2022-12-11T10:22:22.823Z,101100.56
2022-12-11T10:25:10.621Z,101114.66
2022-12-11T10:27:40.110Z,101106.88
2022-12-11T10:30:13.069Z,101116.56
2022-12-11T10:33:17.795Z,101108.00
2022-12-11T10:35:55.648Z,101105.81
2022-12-11T10:38:33.851Z,101076.47
2022-12-11T10:41:10.724Z,101102.63
2022-12-11T10:43:43.376Z,101087.44
2022-12-11T10:46:25.374Z,101097.22
2022-12-11T10:48:54.833Z,101074.00
2022-12-11T10:51:24.481Z,101099.50
2022-12-11T10:54:05.557Z,101099.13
2022-12-11T10:56:37.344Z,101081.72
2022-12-11T10:59:04.416Z,101077.06
2022-12-11T11:01:33.165Z,101075.59
2022-12-11T11:04:06.716Z,101091.69
2022-12-11T11:06:33.641Z,101088.22
2022-12-11T11:09:01.909Z,101088.88
2022-12-11T11:11:38.281Z,101080.47
2022-12-11T11:14:11.887Z,101079.66
2022-12-11T11:16:40.679Z,101060.94
2022-12-11T11:19:07.757Z,101071.06
2022-12-11T11:21:35.937Z,101070.31
2022-12-11T11:24:03.627Z,101072.00
2022-12-11T11:27:04.366Z,101070.09
2022-12-11T11:29:29.541Z,101063.66
2022-12-11T11:31:56.963Z,101053.25
2022-12-11T11:34:23.616Z,101058.69
2022-12-11T11:36:58.762Z,101057.41
2022-12-11T11:39:45.082Z,101065.22
2022-12-11T11:42:52.660Z,101055.63
2022-12-11T11:45:31.869Z,101053.31
2022-12-11T11:48:11.258Z,101052.94
2022-12-11T11:50:44.917Z,101045.44
2022-12-11T11:53:37.964Z,101047.41
2022-12-11T11:56:21.296Z,101050.09
2022-12-11T11:59:07.167Z,101046.84
2022-12-11T12:01:33.717Z,101045.09
2022-12-11T12:04:03.150Z,101055.47
2022-12-11T12:06:55.126Z,101056.13
2022-12-11T12:09:52.527Z,101057.59
2022-12-11T12:12:34.418Z,101054.97
2022-12-11T12:15:20.533Z,101053.06
2022-12-11T12:18:22.827Z,101054.47
2022-12-11T12:21:11.257Z,101054.03
2022-12-11T12:24:09.264Z,101058.53
2022-12-11T12:26:38.942Z,101053.53
2022-12-11T12:29:30.394Z,101040.44
2022-12-11T12:32:02.849Z,101056.00
2022-12-11T12:35:06.633Z,101050.69
2022-12-11T12:37:51.203Z,101049.03
2022-12-11T12:40:18.102Z,101044.66
2022-12-11T12:43:06.915Z,101048.81
2022-12-11T12:46:02.801Z,101034.66
2022-12-11T12:48:30.063Z,101043.38
2022-12-11T12:50:57.158Z,101032.13
2022-12-11T12:53:27.676Z,101043.66
2022-12-11T12:55:54.962Z,101038.56
2022-12-11T12:58:40.057Z,101034.13
2022-12-11T13:01:17.967Z,101046.34
2022-12-11T13:03:54.207Z,101037.25
2022-12-11T13:06:43.480Z,101040.53
2022-12-11T13:09:25.162Z,101039.59
2022-12-11T13:11:57.606Z,101039.50
2022-12-11T13:14:30.276Z,101030.72
2022-12-11T13:17:20.333Z,100996.28
2022-12-11T13:19:49.076Z,101033.56
2022-12-11T13:22:16.029Z,101037.16
2022-12-11T13:24:48.576Z,101024.13
2022-12-11T13:27:30.597Z,101036.44
2022-12-11T13:30:06.922Z,101039.22
2022-12-11T13:32:34.717Z,101037.16
2022-12-11T13:35:06.410Z,101048.50
2022-12-11T13:37:37.182Z,101034.50
2022-12-11T13:40:14.202Z,101034.94
2022-12-11T13:42:53.337Z,101039.28
2022-12-11T13:45:43.420Z,101047.22
2022-12-11T13:48:20.016Z,101047.88
2022-12-11T13:50:47.774Z,101028.06
2022-12-11T13:53:17.003Z,101052.22
2022-12-11T13:55:44.565Z,101009.13
2022-12-11T13:58:20.240Z,101040.44
2022-12-11T14:01:21.466Z,101039.59
2022-12-11T14:04:00.015Z,101032.69
2022-12-11T14:06:28.562Z,101018.09
2022-12-11T14:08:59.383Z,101003.28
2022-12-11T14:11:30.579Z,101036.50
2022-12-11T14:14:00.793Z,101039.91
2022-12-11T14:16:29.120Z,101032.81
2022-12-11T14:19:09.740Z,101023.31
2022-12-11T14:21:37.089Z,101038.94
2022-12-11T14:24:06.553Z,101038.97
2022-12-11T14:26:35.789Z,101027.44
2022-12-11T14:29:02.945Z,101024.78
2022-12-11T14:31:44.261Z,101023.84
2022-12-11T14:34:18.240Z,101044.59
2022-12-11T14:36:48.092Z,101047.13
2022-12-11T14:39:21.154Z,101044.53
2022-12-11T14:41:57.985Z,101048.69
2022-12-11T14:44:28.040Z,101043.38
2022-12-11T14:47:04.360Z,101025.53
2022-12-11T14:49:45.461Z,101038.75
2022-12-11T14:52:20.259Z,101047.34
2022-12-11T14:54:54.122Z,101017.09
2022-12-11T14:57:26.899Z,101029.88
2022-12-11T14:59:55.350Z,101042.06
2022-12-11T15:02:30.510Z,101055.06
2022-12-11T15:05:23.572Z,101054.00
2022-12-11T15:08:24.511Z,101059.00
2022-12-11T15:11:14.693Z,101052.22
2022-12-11T15:13:59.801Z,101054.84
2022-12-11T15:16:31.863Z,101039.97
2022-12-11T15:18:59.323Z,101052.97
2022-12-11T15:21:31.503Z,101052.97
2022-12-11T15:24:02.480Z,101040.78
2022-12-11T15:26:38.749Z,101051.06
2022-12-11T15:29:26.038Z,101053.69
2022-12-11T15:32:19.025Z,101042.25
2022-12-11T15:34:52.985Z,101058.56
2022-12-11T15:37:22.562Z,101061.97
2022-12-11T15:39:49.368Z,101059.22
2022-12-11T15:42:23.042Z,101041.00
2022-12-11T15:44:49.655Z,101060.25
2022-12-11T15:47:22.240Z,101063.34
2022-12-11T15:49:48.825Z,101066.91
2022-12-11T15:52:15.688Z,101068.44
2022-12-11T15:54:42.680Z,101064.00
2022-12-11T15:57:16.578Z,101045.84
2022-12-11T15:59:44.558Z,101070.09
2022-12-11T16:02:13.049Z,101066.63
2022-12-11T16:04:39.977Z,101068.22
2022-12-11T16:07:18.530Z,101065.75
2022-12-11T16:09:46.056Z,101077.63
2022-12-11T16:12:14.326Z,101076.69
2022-12-11T16:14:42.254Z,101072.34
2022-12-11T16:17:10.166Z,101045.34
2022-12-11T16:19:37.506Z,101056.75
2022-12-11T16:22:05.206Z,101073.28
2022-12-11T16:24:33.047Z,101072.44
2022-12-11T16:26:59.650Z,101050.41
2022-12-11T16:29:26.257Z,101071.47
2022-12-11T16:31:52.731Z,101059.50
2022-12-11T16:34:19.843Z,101065.66
2022-12-11T16:36:46.562Z,101062.16
2022-12-11T16:39:13.702Z,101052.66
2022-12-11T16:41:40.242Z,101063.97
2022-12-11T16:44:06.730Z,101059.63
2022-12-11T16:46:33.574Z,101055.41
2022-12-11T16:49:00.534Z,101067.38
2022-12-11T16:51:27.129Z,101066.72
2022-12-11T16:53:53.839Z,101073.72
2022-12-11T16:56:20.395Z,101058.91
2022-12-11T16:58:47.712Z,101065.88
2022-12-11T17:01:16.115Z,101063.25
2022-12-11T17:03:43.862Z,101080.47
2022-12-11T17:06:13.485Z,101063.97
2022-12-11T17:08:41.268Z,101072.75
2022-12-11T17:11:12.955Z,101068.56
2022-12-11T17:13:39.959Z,101068.50
2022-12-11T17:16:08.661Z,101075.91
2022-12-11T17:18:35.521Z,101065.28
2022-12-11T17:21:10.452Z,101079.53
2022-12-11T17:23:37.181Z,101065.44
2022-12-11T17:26:03.965Z,101071.53
2022-12-11T17:28:31.479Z,101076.75
2022-12-11T17:30:59.136Z,101085.03
2022-12-11T17:33:25.835Z,101080.75
2022-12-11T17:35:52.462Z,101081.63
2022-12-11T17:38:19.003Z,101078.91
2022-12-11T17:40:45.565Z,101073.78
2022-12-11T17:43:12.707Z,101070.44
2022-12-11T17:45:43.371Z,101063.63
2022-12-11T17:48:13.527Z,101072.47
2022-12-11T17:50:44.869Z,101078.34
2022-12-11T17:53:12.917Z,101080.03
2022-12-11T17:55:44.295Z,101072.19
2022-12-11T17:58:12.006Z,101064.41
2022-12-11T18:00:40.844Z,101075.59
2022-12-11T18:03:07.503Z,101081.44
2022-12-11T18:05:34.850Z,101069.25
2022-12-11T18:08:01.491Z,101073.78
2022-12-11T18:10:28.137Z,101081.44
2022-12-11T18:12:54.715Z,101085.81
2022-12-11T18:15:21.272Z,101087.47
2022-12-11T18:17:48.542Z,101082.16
2022-12-11T18:20:15.987Z,101080.66
2022-12-11T18:22:43.391Z,101079.63
2022-12-11T18:25:12.337Z,101078.41
2022-12-11T18:27:39.741Z,101069.66
2022-12-11T18:30:07.497Z,101058.72
2022-12-11T18:32:33.994Z,101080.34
2022-12-11T18:35:00.526Z,101053.47
2022-12-11T18:37:28.232Z,101057.16
2022-12-11T18:39:54.940Z,101075.38
2022-12-11T18:42:32.626Z,101078.53
2022-12-11T18:45:00.040Z,101051.75
2022-12-11T18:47:26.612Z,101078.41
2022-12-11T18:49:53.845Z,101061.19
2022-12-11T18:52:20.837Z,101052.09
2022-12-11T18:54:48.045Z,101078.31
2022-12-11T18:57:15.078Z,101079.41
2022-12-11T18:59:41.592Z,101064.59
2022-12-11T19:02:08.773Z,101073.97
2022-12-11T19:04:36.162Z,101082.59
2022-12-11T19:07:02.741Z,101060.81
2022-12-11T19:09:31.662Z,101060.88
2022-12-11T19:12:02.129Z,101058.41
2022-12-11T19:14:28.629Z,101083.47
2022-12-11T19:16:55.368Z,101069.53
2022-12-11T19:19:22.293Z,101058.09
2022-12-11T19:21:49.943Z,101069.31
2022-12-11T19:24:20.068Z,101082.59
2022-12-11T19:26:46.793Z,101062.31
2022-12-11T19:29:26.566Z,101076.41
2022-12-11T19:31:55.176Z,101090.50
2022-12-11T19:34:23.211Z,101087.09
2022-12-11T19:36:50.653Z,101060.09
2022-12-11T19:39:17.804Z,101090.19
2022-12-11T19:41:46.497Z,101092.69
2022-12-11T19:44:13.125Z,101068.34
2022-12-11T19:46:40.727Z,101095.06
2022-12-11T19:49:07.379Z,101075.97
2022-12-11T19:51:38.434Z,101096.00
2022-12-11T19:54:06.953Z,101082.00
2022-12-11T19:56:34.536Z,101094.50
2022-12-11T19:59:07.426Z,101080.50
2022-12-11T20:01:36.905Z,101089.19
2022-12-11T20:04:07.612Z,101077.69
2022-12-11T20:06:36.834Z,101091.78
2022-12-11T20:09:05.266Z,101077.94
2022-12-11T20:11:33.632Z,101082.78
2022-12-11T20:14:00.481Z,101082.53
2022-12-11T20:16:46.372Z,101090.56
2022-12-11T20:19:14.009Z,101083.44
2022-12-11T20:21:40.949Z,101092.00
2022-12-11T20:24:07.877Z,101102.06
2022-12-11T20:26:36.488Z,101103.03
2022-12-11T20:29:07.202Z,101101.66
2022-12-11T20:31:35.487Z,101102.84
2022-12-11T20:34:02.881Z,101097.53
2022-12-11T20:36:29.899Z,101088.03
2022-12-11T20:38:57.029Z,101103.75
2022-12-11T20:41:26.060Z,101095.31
2022-12-11T20:43:54.059Z,101080.25
2022-12-11T20:46:22.856Z,101097.94
2022-12-11T20:48:50.003Z,101074.72
2022-12-11T20:51:22.431Z,101099.34
2022-12-11T20:53:58.288Z,101111.91
2022-12-11T20:56:27.835Z,101103.56
2022-12-11T20:58:55.444Z,101108.41
2022-12-11T21:01:24.559Z,101110.63
2022-12-11T21:03:52.720Z,101103.69
2022-12-11T21:06:31.230Z,101122.69
2022-12-11T21:09:00.238Z,101098.44
2022-12-11T21:11:27.750Z,101115.94
2022-12-11T21:13:54.807Z,101122.44
2022-12-11T21:16:22.445Z,101109.53
2022-12-11T21:18:49.742Z,101117.38
2022-12-11T21:21:17.591Z,101099.06
2022-12-11T21:23:44.996Z,101126.03
2022-12-11T21:26:12.557Z,101125.22
2022-12-11T21:28:39.140Z,101127.69
2022-12-11T21:31:14.259Z,101122.53
2022-12-11T21:33:40.968Z,101125.94
2022-12-11T21:36:10.966Z,101123.88
2022-12-11T21:38:37.707Z,101099.31
2022-12-11T21:41:24.159Z,101126.28
2022-12-11T21:44:56.702Z,101120.25
2022-12-11T21:46:39.816Z,101105.56
2022-12-11T21:49:08.312Z,101108.00
2022-12-11T21:51:41.499Z,101127.91
2022-12-11T21:54:14.380Z,101129.59
2022-12-11T21:56:41.750Z,101131.19
2022-12-11T21:59:10.267Z,101129.50
2022-12-11T22:01:42.038Z,101110.50
2022-12-11T22:04:10.962Z,101133.09
2022-12-11T22:06:37.890Z,101131.25
2022-12-11T22:09:05.175Z,101132.28
2022-12-11T22:11:33.385Z,101133.72
2022-12-11T22:14:00.564Z,101133.88
2022-12-11T22:16:28.002Z,101135.47
2022-12-11T22:18:55.064Z,101143.22
2022-12-11T22:21:21.793Z,101130.22
2022-12-11T22:23:48.471Z,101142.28
2022-12-11T22:26:19.959Z,101143.09
2022-12-11T22:28:46.751Z,101136.88
2022-12-11T22:31:16.734Z,101129.34
2022-12-11T22:33:43.600Z,101140.94
2022-12-11T22:36:11.590Z,101140.47
2022-12-11T22:38:39.467Z,101145.19
2022-12-11T22:41:17.565Z,101134.97
2022-12-11T22:43:48.867Z,101141.09
2022-12-11T22:46:17.570Z,101145.06
2022-12-11T22:48:44.665Z,101145.81
2022-12-11T22:51:11.707Z,101153.53
2022-12-11T22:53:39.092Z,101156.16
2022-12-11T22:56:07.129Z,101152.34
2022-12-11T22:58:33.745Z,101157.72
2022-12-11T23:01:00.836Z,101149.94
2022-12-11T23:03:27.902Z,101131.94
2022-12-11T23:05:54.700Z,101135.19
2022-12-11T23:08:21.255Z,101159.66
2022-12-11T23:10:47.929Z,101133.63
2022-12-11T23:13:14.637Z,101160.75
2022-12-11T23:15:41.169Z,101133.38
2022-12-11T23:18:08.237Z,101163.59
2022-12-11T23:20:35.256Z,101154.16
2022-12-11T23:23:02.789Z,101122.03
2022-12-11T23:25:29.780Z,101156.31
2022-12-11T23:27:56.425Z,101136.16
2022-12-11T23:30:23.988Z,101135.06
2022-12-11T23:32:50.658Z,101130.56
2022-12-11T23:35:17.255Z,101131.31
2022-12-11T23:37:44.225Z,101154.41
2022-12-11T23:40:11.410Z,101157.78
2022-12-11T23:42:37.933Z,101152.47
2022-12-11T23:45:05.331Z,101160.50
2022-12-11T23:47:31.884Z,101152.66
2022-12-11T23:49:58.420Z,101153.53
2022-12-11T23:52:26.584Z,101158.44
2022-12-11T23:54:53.120Z,101155.69
2022-12-11T23:57:20.058Z,101149.47
2022-12-11T23:59:47.084Z,101163.34
